Time;durP1;ratioP1;P1;durP2;ratioP2;P2;SDS_P1;SDS_P2;PMS_P1;PMS_P2;Temp;Humidity;BMP_temperature;BMP_pressure;BME280_temperature;BME280_humidity;BME280_pressure;Samples;Min_cycle;Max_cycle;Signal;HPM_P1;HPM_P2
2023/04/22 00:02:05;;;;;;;;;;;12.60;69.80;;;;;;5017242;28;20614;-69
2023/04/22 00:04:31;;;;;;;;;;;12.60;69.80;;;;;;5018800;28;19921;-69
2023/04/22 00:06:56;;;;;;;;;;;12.60;69.60;;;;;;5011855;28;19914;-68
2023/04/22 00:09:22;;;;;;;;;;;12.60;70.00;;;;;;5020503;28;19956;-69
2023/04/22 00:11:48;;;;;;;;;;;12.50;70.00;;;;;;5020123;28;19917;-68
2023/04/22 00:14:14;;;;;;;;;;;12.50;70.40;;;;;;5017427;28;19920;-68
2023/04/22 00:16:39;;;;;;;;;;;12.50;70.20;;;;;;5022681;28;19909;-70
2023/04/22 00:19:05;;;;;;;;;;;12.50;70.50;;;;;;5018204;28;19913;-71
2023/04/22 00:21:31;;;;;;;;;;;12.50;70.60;;;;;;5018128;28;20396;-70
2023/04/22 00:23:57;;;;;;;;;;;12.50;70.70;;;;;;5014041;28;19925;-69
2023/04/22 00:26:23;;;;;;;;;;;12.40;70.60;;;;;;5013352;28;20368;-70
2023/04/22 00:28:49;;;;;;;;;;;12.40;70.60;;;;;;5016411;28;19921;-71
2023/04/22 00:31:14;;;;;;;;;;;12.40;70.50;;;;;;5017734;28;20382;-70
2023/04/22 00:33:40;;;;;;;;;;;12.40;70.80;;;;;;5018167;28;19913;-70
2023/04/22 00:36:06;;;;;;;;;;;12.40;70.60;;;;;;5019385;28;19909;-71
2023/04/22 00:38:32;;;;;;;;;;;12.40;70.70;;;;;;5021297;28;19964;-70
2023/04/22 00:40:57;;;;;;;;;;;12.40;70.80;;;;;;5018960;28;19921;-70
2023/04/22 00:43:23;;;;;;;;;;;12.40;70.70;;;;;;5014830;28;19976;-69
2023/04/22 00:45:49;;;;;;;;;;;12.40;70.60;;;;;;4997557;28;19917;-69
2023/04/22 00:48:15;;;;;;;;;;;12.30;70.40;;;;;;5016846;28;19956;-69
2023/04/22 00:50:40;;;;;;;;;;;12.30;70.50;;;;;;5016512;28;20290;-70
2023/04/22 00:53:06;;;;;;;;;;;12.30;71.30;;;;;;5021083;28;19920;-68
2023/04/22 00:55:31;;;;;;;;;;;12.30;70.80;;;;;;5016920;28;19916;-68
2023/04/22 00:57:59;;;;;;;;;;;12.40;71.00;;;;;;5009176;28;19992;-69
2023/04/22 01:00:26;;;;;;;;;;;12.40;71.10;;;;;;5017299;28;20325;-69
2023/04/22 01:02:52;;;;;;;;;;;12.30;70.70;;;;;;5013012;28;19992;-68
2023/04/22 01:05:18;;;;;;;;;;;12.40;71.10;;;;;;5032774;28;19917;-67
2023/04/22 01:07:44;;;;;;;;;;;12.40;71.10;;;;;;4999022;28;20247;-70
2023/04/22 01:10:10;;;;;;;;;;;12.30;71.20;;;;;;5015944;28;19920;-68
2023/04/22 01:12:36;;;;;;;;;;;12.30;71.10;;;;;;5009306;28;19975;-69
2023/04/22 01:15:02;;;;;;;;;;;12.30;71.30;;;;;;5018262;28;19909;-69
2023/04/22 01:17:28;;;;;;;;;;;12.30;71.40;;;;;;5014482;28;20115;-68
2023/04/22 01:19:54;;;;;;;;;;;12.30;71.40;;;;;;5020377;28;20366;-68
2023/04/22 01:22:20;;;;;;;;;;;12.30;71.50;;;;;;5011289;28;19909;-69
2023/04/22 01:24:46;;;;;;;;;;;12.20;71.80;;;;;;5007297;28;19913;-69
2023/04/22 01:27:12;;;;;;;;;;;12.20;72.00;;;;;;5013753;28;19920;-69
2023/04/22 01:29:37;;;;;;;;;;;12.30;72.20;;;;;;5015323;28;19921;-69
2023/04/22 01:32:03;;;;;;;;;;;12.30;72.20;;;;;;5011915;28;19972;-69
2023/04/22 01:34:30;;;;;;;;;;;12.30;72.20;;;;;;5016131;28;19913;-69
2023/04/22 01:36:55;;;;;;;;;;;12.30;72.40;;;;;;5016853;28;19909;-69
2023/04/22 01:39:21;;;;;;;;;;;12.20;72.50;;;;;;5017757;28;19916;-70
2023/04/22 01:41:47;;;;;;;;;;;12.30;72.40;;;;;;5014666;28;20262;-69
2023/04/22 01:44:13;;;;;;;;;;;12.20;72.60;;;;;;5014165;28;19916;-69
2023/04/22 01:46:38;;;;;;;;;;;12.20;72.90;;;;;;5031681;28;19923;-69
2023/04/22 01:49:04;;;;;;;;;;;12.20;72.80;;;;;;5013461;28;19999;-70
2023/04/22 01:51:30;;;;;;;;;;;12.20;73.00;;;;;;5015232;28;19909;-69
2023/04/22 01:53:56;;;;;;;;;;;12.20;72.80;;;;;;5014419;28;20452;-71
2023/04/22 01:56:21;;;;;;;;;;;12.20;73.20;;;;;;5015293;28;19952;-70
2023/04/22 01:58:47;;;;;;;;;;;12.20;73.30;;;;;;5013890;28;19941;-68
2023/04/22 02:01:12;;;;;;;;;;;12.20;73.30;;;;;;5009928;28;19909;-69
2023/04/22 02:03:38;;;;;;;;;;;12.10;73.40;;;;;;5012125;28;20384;-68
2023/04/22 02:06:03;;;;;;;;;;;12.10;73.50;;;;;;5015082;28;19919;-68
2023/04/22 02:08:29;;;;;;;;;;;12.20;73.90;;;;;;5013636;28;19917;-69
2023/04/22 02:10:55;;;;;;;;;;;12.20;73.70;;;;;;5014621;28;20274;-70
2023/04/22 02:13:21;;;;;;;;;;;12.20;73.90;;;;;;5013588;28;19936;-68
2023/04/22 02:15:46;;;;;;;;;;;12.20;73.90;;;;;;5000202;28;19963;-69
2023/04/22 02:18:12;;;;;;;;;;;12.20;74.00;;;;;;5041354;28;19909;-69
2023/04/22 02:20:37;;;;;;;;;;;12.10;74.40;;;;;;5009324;28;19948;-69
2023/04/22 02:23:03;;;;;;;;;;;12.10;74.40;;;;;;4996611;28;20689;-68
2023/04/22 02:25:29;;;;;;;;;;;12.10;74.40;;;;;;5008990;28;19925;-69
2023/04/22 02:27:55;;;;;;;;;;;12.10;74.70;;;;;;5017138;28;20284;-68
2023/04/22 02:30:21;;;;;;;;;;;12.10;74.60;;;;;;5002239;28;19912;-68
2023/04/22 02:32:46;;;;;;;;;;;12.10;74.80;;;;;;5018454;28;19917;-69
2023/04/22 02:35:12;;;;;;;;;;;12.10;74.80;;;;;;5019637;28;20282;-70
2023/04/22 02:37:37;;;;;;;;;;;12.10;74.80;;;;;;5019084;28;19913;-69
2023/04/22 02:40:03;;;;;;;;;;;12.10;75.10;;;;;;5019367;28;19927;-69
2023/04/22 02:42:29;;;;;;;;;;;12.10;75.10;;;;;;5016781;28;19917;-70
2023/04/22 02:44:54;;;;;;;;;;;12.10;75.10;;;;;;5012816;28;19913;-70
2023/04/22 02:47:21;;;;;;;;;;;12.10;75.20;;;;;;5005085;28;20004;-68
2023/04/22 02:49:46;;;;;;;;;;;12.10;75.30;;;;;;5041861;28;19917;-70
2023/04/22 02:52:12;;;;;;;;;;;12.10;75.40;;;;;;5010398;28;19972;-68
2023/04/22 02:54:37;;;;;;;;;;;12.00;75.60;;;;;;5007155;28;21016;-68
2023/04/22 02:57:04;;;;;;;;;;;12.10;75.60;;;;;;5012683;28;19916;-69
2023/04/22 02:59:30;;;;;;;;;;;12.00;75.80;;;;;;5011194;28;20333;-70
2023/04/22 03:01:56;;;;;;;;;;;12.00;75.90;;;;;;5014012;28;19917;-69
2023/04/22 03:04:21;;;;;;;;;;;12.00;76.10;;;;;;5018537;28;19936;-69
2023/04/22 03:06:48;;;;;;;;;;;12.00;76.10;;;;;;5017619;28;19909;-70
2023/04/22 03:09:13;;;;;;;;;;;11.90;76.30;;;;;;5014743;28;19913;-70
2023/04/22 03:11:39;;;;;;;;;;;12.00;76.70;;;;;;5016294;28;20400;-70
2023/04/22 03:14:04;;;;;;;;;;;11.90;76.90;;;;;;5015485;28;20004;-69
2023/04/22 03:16:30;;;;;;;;;;;11.90;77.00;;;;;;5020101;28;19927;-69
2023/04/22 03:18:55;;;;;;;;;;;11.90;77.40;;;;;;5016960;28;19996;-70
2023/04/22 03:21:21;;;;;;;;;;;11.90;77.30;;;;;;5035511;28;20004;-69
2023/04/22 03:23:47;;;;;;;;;;;11.80;77.40;;;;;;5018554;28;19909;-69
2023/04/22 03:26:12;;;;;;;;;;;11.90;77.70;;;;;;5017309;28;19925;-69
2023/04/22 03:28:38;;;;;;;;;;;11.90;77.80;;;;;;5013575;28;19960;-68
2023/04/22 03:31:04;;;;;;;;;;;11.90;77.80;;;;;;5019112;28;20466;-68
2023/04/22 03:33:29;;;;;;;;;;;11.90;78.00;;;;;;5020237;28;20372;-68
2023/04/22 03:35:55;;;;;;;;;;;11.80;78.20;;;;;;5001644;28;19905;-69
2023/04/22 03:38:20;;;;;;;;;;;11.80;78.30;;;;;;5017692;28;19919;-69
2023/04/22 03:40:46;;;;;;;;;;;11.80;78.60;;;;;;5016061;28;19927;-69
2023/04/22 03:43:11;;;;;;;;;;;11.80;78.70;;;;;;5019362;28;19979;-69
2023/04/22 03:45:37;;;;;;;;;;;11.80;78.80;;;;;;5015272;28;19975;-68
2023/04/22 03:48:03;;;;;;;;;;;11.70;79.20;;;;;;5017198;28;19913;-69
2023/04/22 03:50:28;;;;;;;;;;;11.70;79.60;;;;;;5019095;28;19917;-69
2023/04/22 03:52:54;;;;;;;;;;;11.70;79.90;;;;;;5016543;28;19905;-68
2023/04/22 03:55:20;;;;;;;;;;;11.70;80.30;;;;;;5017628;28;19976;-69
2023/04/22 03:57:45;;;;;;;;;;;11.70;80.40;;;;;;5012098;28;20573;-69
2023/04/22 04:00:11;;;;;;;;;;;11.70;80.90;;;;;;5016803;28;19925;-69
2023/04/22 04:02:37;;;;;;;;;;;11.70;80.60;;;;;;5015328;28;19909;-69
2023/04/22 04:05:03;;;;;;;;;;;11.60;80.80;;;;;;5016837;28;19917;-69
2023/04/22 04:07:29;;;;;;;;;;;11.60;80.90;;;;;;5007422;28;20423;-68
2023/04/22 04:09:55;;;;;;;;;;;11.70;81.00;;;;;;5004149;28;19931;-68
2023/04/22 04:12:20;;;;;;;;;;;11.60;81.40;;;;;;5007803;28;20382;-69
2023/04/22 04:14:46;;;;;;;;;;;11.60;81.70;;;;;;5008722;28;20005;-69
2023/04/22 04:17:12;;;;;;;;;;;11.60;82.10;;;;;;5010754;28;19975;-69
2023/04/22 04:19:38;;;;;;;;;;;11.60;82.10;;;;;;5008505;28;19908;-69
2023/04/22 04:22:04;;;;;;;;;;;11.60;82.50;;;;;;5012489;28;19931;-70
2023/04/22 04:24:29;;;;;;;;;;;11.60;82.60;;;;;;5011774;28;19922;-69
2023/04/22 04:26:56;;;;;;;;;;;11.60;82.70;;;;;;5010252;28;20334;-68
2023/04/22 04:29:22;;;;;;;;;;;11.60;83.20;;;;;;5016373;28;19917;-68
2023/04/22 04:31:48;;;;;;;;;;;11.60;83.20;;;;;;5017094;28;19971;-68
2023/04/22 04:34:14;;;;;;;;;;;11.60;83.40;;;;;;5015241;28;19971;-68
2023/04/22 04:36:39;;;;;;;;;;;11.60;84.40;;;;;;5018656;28;19952;-69
2023/04/22 04:39:05;;;;;;;;;;;11.60;83.80;;;;;;5011317;28;20395;-69
2023/04/22 04:41:32;;;;;;;;;;;11.60;83.80;;;;;;5017391;28;19971;-68
2023/04/22 04:43:59;;;;;;;;;;;11.60;84.00;;;;;;5015982;28;19952;-68
2023/04/22 04:46:28;;;;;;;;;;;11.60;84.10;;;;;;5015925;28;20270;-68
2023/04/22 04:48:54;;;;;;;;;;;11.70;84.30;;;;;;5014787;28;19920;-68
2023/04/22 04:51:19;;;;;;;;;;;11.70;84.80;;;;;;5013426;28;19918;-68
2023/04/22 04:53:45;;;;;;;;;;;11.70;84.90;;;;;;5016147;28;19917;-69
2023/04/22 04:56:11;;;;;;;;;;;11.70;85.20;;;;;;5011005;28;19913;-70
2023/04/22 04:58:36;;;;;;;;;;;11.70;84.90;;;;;;5010000;28;19913;-69
2023/04/22 05:01:02;;;;;;;;;;;11.70;85.30;;;;;;5012730;28;19922;-69
2023/04/22 05:03:27;;;;;;;;;;;11.70;85.40;;;;;;5011897;28;19926;-68
2023/04/22 05:05:53;;;;;;;;;;;11.70;85.20;;;;;;5012029;28;19913;-69
2023/04/22 05:08:19;;;;;;;;;;;11.80;85.50;;;;;;5011508;28;19996;-69
2023/04/22 05:10:44;;;;;;;;;;;11.80;85.30;;;;;;5011798;28;19917;-70
2023/04/22 05:13:10;;;;;;;;;;;11.80;85.50;;;;;;5010948;28;19920;-70
2023/04/22 05:15:36;;;;;;;;;;;11.90;85.70;;;;;;5014144;28;20033;-69
2023/04/22 05:18:01;;;;;;;;;;;11.90;85.80;;;;;;5011436;28;20469;-68
2023/04/22 05:20:27;;;;;;;;;;;11.90;85.70;;;;;;5012766;28;19912;-69
2023/04/22 05:22:53;;;;;;;;;;;11.90;85.70;;;;;;5013018;28;19996;-68
2023/04/22 05:25:18;;;;;;;;;;;12.00;85.60;;;;;;5047608;28;20459;-69
2023/04/22 05:27:44;;;;;;;;;;;12.00;85.70;;;;;;5012217;28;19920;-69
2023/04/22 05:30:10;;;;;;;;;;;12.00;85.60;;;;;;5017633;28;19917;-69
2023/04/22 05:32:35;;;;;;;;;;;12.00;85.60;;;;;;5009928;28;19925;-68
2023/04/22 05:35:02;;;;;;;;;;;12.00;86.30;;;;;;5016157;28;20372;-69
2023/04/22 05:37:27;;;;;;;;;;;12.00;86.00;;;;;;5013715;28;19913;-69
2023/04/22 05:39:53;;;;;;;;;;;12.10;86.10;;;;;;5009919;28;20269;-69
2023/04/22 05:42:18;;;;;;;;;;;12.10;85.90;;;;;;5014820;28;19929;-68
2023/04/22 05:44:44;;;;;;;;;;;12.20;86.00;;;;;;5015542;28;20447;-69
2023/04/22 05:47:09;;;;;;;;;;;12.20;85.90;;;;;;5006657;28;19918;-70
2023/04/22 05:49:35;;;;;;;;;;;12.30;86.10;;;;;;5005140;28;19974;-68
2023/04/22 05:52:00;;;;;;;;;;;12.30;85.80;;;;;;5006069;28;19979;-67
2023/04/22 05:54:27;;;;;;;;;;;12.30;86.00;;;;;;5008225;28;19913;-67
2023/04/22 05:56:52;;;;;;;;;;;13.30;85.10;;;;;;5012055;28;19956;-68
2023/04/22 05:59:18;;;;;;;;;;;12.90;83.90;;;;;;5014491;28;20313;-68
2023/04/22 06:01:43;;;;;;;;;;;12.80;84.50;;;;;;5016413;28;19917;-71
2023/04/22 06:04:10;;;;;;;;;;;12.70;84.70;;;;;;5017120;28;20289;-69
2023/04/22 06:06:36;;;;;;;;;;;12.60;85.00;;;;;;5010419;28;19996;-68
2023/04/22 06:09:01;;;;;;;;;;;12.60;85.20;;;;;;5017460;28;20059;-67
2023/04/22 06:11:27;;;;;;;;;;;12.60;85.00;;;;;;5011959;28;19917;-68
2023/04/22 06:13:53;;;;;;;;;;;12.60;85.60;;;;;;5002220;28;19917;-68
2023/04/22 06:16:18;;;;;;;;;;;12.60;85.90;;;;;;5005344;28;19920;-69
2023/04/22 06:18:44;;;;;;;;;;;12.70;86.00;;;;;;5002596;28;19908;-69
2023/04/22 06:21:10;;;;;;;;;;;12.70;85.60;;;;;;5007890;28;19913;-69
2023/04/22 06:23:36;;;;;;;;;;;12.70;85.60;;;;;;5001685;28;20051;-69
2023/04/22 06:26:02;;;;;;;;;;;12.70;85.80;;;;;;5007083;28;20292;-68
2023/04/22 06:28:27;;;;;;;;;;;12.80;86.00;;;;;;5012447;28;19909;-69
2023/04/22 06:30:53;;;;;;;;;;;12.80;86.10;;;;;;5013607;28;19968;-67
2023/04/22 06:33:19;;;;;;;;;;;12.90;85.80;;;;;;5016079;28;19949;-68
2023/04/22 06:35:44;;;;;;;;;;;12.90;85.80;;;;;;5013117;28;19910;-68
2023/04/22 06:38:10;;;;;;;;;;;12.90;86.10;;;;;;5013257;28;19947;-68
2023/04/22 06:40:35;;;;;;;;;;;12.90;86.10;;;;;;5010726;28;19924;-68
2023/04/22 06:43:01;;;;;;;;;;;13.00;86.10;;;;;;5015240;28;19955;-68
2023/04/22 06:45:27;;;;;;;;;;;13.10;85.90;;;;;;5006402;28;20384;-68
2023/04/22 06:47:55;;;;;;;;;;;13.10;85.90;;;;;;5007583;28;19956;-68
2023/04/22 06:50:21;;;;;;;;;;;13.10;85.90;;;;;;5012074;28;19909;-68
2023/04/22 06:52:46;;;;;;;;;;;13.10;85.90;;;;;;5009399;28;19920;-68
2023/04/22 06:55:12;;;;;;;;;;;13.10;86.00;;;;;;5008720;28;19916;-68
2023/04/22 06:57:38;;;;;;;;;;;13.20;86.10;;;;;;4993975;28;19909;-68
2023/04/22 07:00:04;;;;;;;;;;;13.30;86.00;;;;;;5009691;28;20044;-68
2023/04/22 07:02:30;;;;;;;;;;;13.30;85.90;;;;;;5004697;28;19924;-68
2023/04/22 07:04:55;;;;;;;;;;;13.30;86.20;;;;;;5009719;28;19936;-71
2023/04/22 07:07:21;;;;;;;;;;;13.40;86.30;;;;;;5011175;28;19909;-69
2023/04/22 07:09:46;;;;;;;;;;;13.40;86.40;;;;;;5006294;28;20370;-71
2023/04/22 07:12:12;;;;;;;;;;;13.50;86.40;;;;;;5003972;28;19956;-69
2023/04/22 07:14:41;;;;;;;;;;;13.50;86.70;;;;;;5008862;28;19967;-68
2023/04/22 07:17:07;;;;;;;;;;;13.50;86.40;;;;;;5000987;28;20429;-68
2023/04/22 07:19:32;;;;;;;;;;;13.60;86.50;;;;;;5008602;28;19920;-68
2023/04/22 07:21:58;;;;;;;;;;;13.60;86.60;;;;;;5042766;28;19980;-69
2023/04/22 07:24:24;;;;;;;;;;;13.60;86.50;;;;;;5004335;28;19919;-72
2023/04/22 07:26:49;;;;;;;;;;;13.70;86.80;;;;;;5032231;28;19920;-70
2023/04/22 07:29:15;;;;;;;;;;;13.70;86.70;;;;;;5008891;28;19917;-67
2023/04/22 07:31:41;;;;;;;;;;;13.70;86.80;;;;;;5014765;28;19953;-70
2023/04/22 07:34:08;;;;;;;;;;;13.80;87.00;;;;;;5015418;28;19995;-70
2023/04/22 07:36:33;;;;;;;;;;;13.80;87.10;;;;;;5012936;28;20300;-71
2023/04/22 07:38:59;;;;;;;;;;;13.90;87.20;;;;;;5041471;28;20251;-66
2023/04/22 07:41:24;;;;;;;;;;;13.90;87.90;;;;;;4993835;28;19913;-67
2023/04/22 07:43:50;;;;;;;;;;;14.00;87.60;;;;;;5018158;28;19913;-66
2023/04/22 07:46:16;;;;;;;;;;;14.10;87.40;;;;;;5009138;28;19968;-69
2023/04/22 07:48:41;;;;;;;;;;;14.10;87.80;;;;;;5014566;28;19919;-67
2023/04/22 07:51:07;;;;;;;;;;;14.20;87.50;;;;;;5006909;28;20016;-67
2023/04/22 07:53:32;;;;;;;;;;;14.30;88.00;;;;;;5013112;28;19917;-66
2023/04/22 07:55:59;;;;;;;;;;;14.30;87.90;;;;;;5017383;28;19913;-67
2023/04/22 07:58:25;;;;;;;;;;;14.40;87.50;;;;;;5006663;28;19910;-67
2023/04/22 08:00:50;;;;;;;;;;;14.40;88.20;;;;;;5006610;28;20307;-66
2023/04/22 08:03:16;;;;;;;;;;;14.50;88.40;;;;;;5011718;28;19971;-65
2023/04/22 08:05:41;;;;;;;;;;;14.50;88.30;;;;;;5013031;28;19921;-68
2023/04/22 08:08:07;;;;;;;;;;;14.60;88.50;;;;;;5006246;28;20658;-69
2023/04/22 08:10:33;;;;;;;;;;;14.60;88.30;;;;;;5009563;28;19965;-69
2023/04/22 08:12:58;;;;;;;;;;;14.60;88.30;;;;;;5011356;28;20300;-70
2023/04/22 08:15:24;;;;;;;;;;;14.80;88.90;;;;;;5008978;28;20289;-69
2023/04/22 08:17:50;;;;;;;;;;;14.80;88.60;;;;;;5002594;28;20366;-72
2023/04/22 08:20:16;;;;;;;;;;;14.80;88.20;;;;;;5002446;28;20739;-68
2023/04/22 08:22:43;;;;;;;;;;;14.90;88.50;;;;;;4989516;28;19909;-69
2023/04/22 08:25:08;;;;;;;;;;;14.90;88.50;;;;;;5001823;28;19948;-68
2023/04/22 08:27:34;;;;;;;;;;;15.10;88.80;;;;;;5012198;28;20015;-68
2023/04/22 08:30:00;;;;;;;;;;;15.10;88.60;;;;;;5014431;28;20355;-68
2023/04/22 08:32:26;;;;;;;;;;;15.30;88.50;;;;;;5012696;28;19910;-68
2023/04/22 08:34:52;;;;;;;;;;;15.20;87.90;;;;;;5015818;28;20047;-66
2023/04/22 08:37:17;;;;;;;;;;;15.30;87.50;;;;;;5016953;28;19964;-67
2023/04/22 08:39:43;;;;;;;;;;;15.30;88.00;;;;;;5010821;28;19916;-67
2023/04/22 08:42:09;;;;;;;;;;;15.40;88.40;;;;;;5014105;28;19909;-67
2023/04/22 08:44:35;;;;;;;;;;;15.40;88.20;;;;;;5011303;28;20337;-67
2023/04/22 08:47:02;;;;;;;;;;;15.60;88.70;;;;;;5010411;28;19971;-67
2023/04/22 08:49:28;;;;;;;;;;;15.60;87.50;;;;;;5042368;28;19913;-68
2023/04/22 08:51:55;;;;;;;;;;;15.60;87.30;;;;;;5004309;28;19924;-67
2023/04/22 08:54:22;;;;;;;;;;;15.50;87.60;;;;;;5007792;28;20399;-68
2023/04/22 08:56:48;;;;;;;;;;;15.50;88.10;;;;;;5012909;28;19913;-70
2023/04/22 08:59:15;;;;;;;;;;;15.50;88.20;;;;;;5010602;28;20400;-68
2023/04/22 09:01:42;;;;;;;;;;;15.60;89.40;;;;;;5007113;28;19913;-69
2023/04/22 09:04:13;;;;;;;;;;;15.70;88.60;;;;;;5009230;28;19910;-69
2023/04/22 09:06:40;;;;;;;;;;;15.70;88.60;;;;;;5006135;28;19981;-68
2023/04/22 09:09:07;;;;;;;;;;;15.80;88.70;;;;;;5009520;28;19920;-68
2023/04/22 09:11:33;;;;;;;;;;;15.90;88.50;;;;;;5011007;28;19996;-68
2023/04/22 09:13:59;;;;;;;;;;;16.00;88.70;;;;;;5010316;28;20012;-68
2023/04/22 09:16:24;;;;;;;;;;;16.10;89.50;;;;;;5010785;28;19956;-68
2023/04/22 09:18:50;;;;;;;;;;;16.20;88.30;;;;;;5014054;28;19916;-68
2023/04/22 09:21:16;;;;;;;;;;;16.20;89.00;;;;;;5014607;28;19951;-68
2023/04/22 09:23:46;;;;;;;;;;;16.30;88.50;;;;;;5004291;28;19913;-71
2023/04/22 09:26:11;;;;;;;;;;;16.40;88.70;;;;;;5006433;28;19949;-69
2023/04/22 09:28:37;;;;;;;;;;;16.40;88.00;;;;;;5003449;28;19952;-69
2023/04/22 09:31:02;;;;;;;;;;;16.50;87.60;;;;;;5005619;28;21141;-68
2023/04/22 09:33:30;;;;;;;;;;;16.60;87.20;;;;;;5005215;28;20387;-69
2023/04/22 09:35:55;;;;;;;;;;;16.70;86.10;;;;;;5005584;28;19918;-68
2023/04/22 09:38:21;;;;;;;;;;;16.80;86.30;;;;;;5010466;28;19909;-67
2023/04/22 09:40:46;;;;;;;;;;;16.80;86.30;;;;;;5001313;28;20365;-68
2023/04/22 09:43:16;;;;;;;;;;;16.90;86.30;;;;;;5005209;28;19909;-67
2023/04/22 09:45:42;;;;;;;;;;;17.00;86.10;;;;;;5037967;28;19925;-72
2023/04/22 09:48:16;;;;;;;;;;;17.00;86.40;;;;;;5005122;28;19916;-67
2023/04/22 09:50:46;;;;;;;;;;;17.10;85.70;;;;;;5006424;28;19913;-67
2023/04/22 09:53:14;;;;;;;;;;;17.20;85.00;;;;;;5005211;28;19956;-67
2023/04/22 09:55:41;;;;;;;;;;;17.30;84.00;;;;;;5018147;28;19959;-67
2023/04/22 09:58:08;;;;;;;;;;;17.30;84.50;;;;;;5011573;28;19960;-67
2023/04/22 10:00:36;;;;;;;;;;;17.50;85.30;;;;;;5012227;28;19912;-67
2023/04/22 10:03:02;;;;;;;;;;;17.50;85.20;;;;;;5004165;28;19917;-68
2023/04/22 10:05:29;;;;;;;;;;;17.50;84.30;;;;;;5039695;28;19923;-68
2023/04/22 10:07:55;;;;;;;;;;;17.60;83.60;;;;;;5005100;28;19909;-67
2023/04/22 10:10:21;;;;;;;;;;;17.60;82.90;;;;;;5005903;28;19956;-67
2023/04/22 10:12:47;;;;;;;;;;;17.70;82.70;;;;;;5006015;28;19956;-67
2023/04/22 10:15:13;;;;;;;;;;;17.90;82.00;;;;;;5006530;28;19921;-68
2023/04/22 10:17:39;;;;;;;;;;;18.00;80.70;;;;;;4992155;28;19914;-68
2023/04/22 10:20:12;;;;;;;;;;;18.00;81.90;;;;;;5011623;28;20462;-68
2023/04/22 10:22:38;;;;;;;;;;;18.10;81.40;;;;;;5011702;28;19909;-70
2023/04/22 10:25:09;;;;;;;;;;;18.10;81.80;;;;;;5010482;28;19940;-68
2023/04/22 10:27:35;;;;;;;;;;;18.20;80.80;;;;;;5005184;28;19944;-68
2023/04/22 10:30:00;;;;;;;;;;;18.30;81.10;;;;;;5014602;28;19913;-68
2023/04/22 10:32:26;;;;;;;;;;;18.40;79.70;;;;;;5013690;28;19936;-68
2023/04/22 10:35:09;;;;;;;;;;;18.40;79.30;;;;;;4997823;28;20326;-68
2023/04/22 10:37:35;;;;;;;;;;;18.50;79.30;;;;;;5005498;28;19921;-69
2023/04/22 10:40:12;;;;;;;;;;;18.60;78.30;;;;;;5011399;28;19937;-68
2023/04/22 10:42:38;;;;;;;;;;;18.60;78.80;;;;;;5007559;28;19910;-68
2023/04/22 10:45:04;;;;;;;;;;;18.70;78.40;;;;;;5013556;28;19917;-68
2023/04/22 10:47:34;;;;;;;;;;;18.70;78.40;;;;;;5016920;28;19913;-68
2023/04/22 10:50:10;;;;;;;;;;;18.80;79.60;;;;;;4998470;28;19921;-68
2023/04/22 10:52:36;;;;;;;;;;;19.00;79.50;;;;;;5012388;28;20287;-69
2023/04/22 10:55:02;;;;;;;;;;;19.00;77.90;;;;;;5003823;28;19969;-68
2023/04/22 10:57:32;;;;;;;;;;;19.10;76.60;;;;;;5013717;28;20374;-69
2023/04/22 10:59:59;;;;;;;;;;;19.20;77.50;;;;;;5009489;28;20615;-69
2023/04/22 11:02:25;;;;;;;;;;;19.30;76.90;;;;;;5018420;28;19948;-69
2023/04/22 11:04:53;;;;;;;;;;;19.40;75.80;;;;;;5013832;28;19960;-69
2023/04/22 11:07:21;;;;;;;;;;;19.60;76.90;;;;;;5015524;28;19924;-71
2023/04/22 11:09:51;;;;;;;;;;;19.90;76.80;;;;;;5030539;28;19909;-68
2023/04/22 11:12:38;;;;;;;;;;;20.70;73.50;;;;;;5033310;28;20462;-69
2023/04/22 11:15:16;;;;;;;;;;;21.90;70.90;;;;;;5004401;28;19949;-69
2023/04/22 11:17:43;;;;;;;;;;;23.10;65.90;;;;;;5018282;28;19909;-69
2023/04/22 11:20:09;;;;;;;;;;;24.40;62.00;;;;;;5016103;28;19916;-68
2023/04/22 11:22:35;;;;;;;;;;;25.50;59.10;;;;;;5015502;28;19944;-69
2023/04/22 11:25:03;;;;;;;;;;;26.70;56.60;;;;;;5013525;28;19917;-69
2023/04/22 11:27:29;;;;;;;;;;;27.50;54.30;;;;;;5012955;28;20412;-68
2023/04/22 11:30:14;;;;;;;;;;;27.80;51.50;;;;;;5012030;28;19925;-69
2023/04/22 11:32:43;;;;;;;;;;;28.20;50.20;;;;;;5031510;28;19952;-68
2023/04/22 11:35:10;;;;;;;;;;;28.60;49.60;;;;;;5016292;28;19967;-69
2023/04/22 11:38:02;;;;;;;;;;;28.40;48.70;;;;;;5018955;28;19909;-69
2023/04/22 11:40:29;;;;;;;;;;;27.80;49.20;;;;;;5016125;28;19915;-69
2023/04/22 11:42:55;;;;;;;;;;;28.00;48.90;;;;;;5023851;28;20423;-68
2023/04/22 11:45:21;;;;;;;;;;;27.80;48.10;;;;;;5018152;28;20449;-69
2023/04/22 11:47:49;;;;;;;;;;;27.70;48.00;;;;;;5014418;28;20011;-69
2023/04/22 11:50:15;;;;;;;;;;;27.10;48.60;;;;;;5019049;28;20004;-68
2023/04/22 11:52:41;;;;;;;;;;;26.60;49.60;;;;;;5016401;28;19967;-70
2023/04/22 11:55:09;;;;;;;;;;;26.30;49.40;;;;;;5017496;28;20012;-69
2023/04/22 11:57:35;;;;;;;;;;;26.10;50.80;;;;;;5011173;28;20243;-68
2023/04/22 12:00:00;;;;;;;;;;;26.10;50.80;;;;;;5007890;28;19909;-68
2023/04/22 12:02:26;;;;;;;;;;;26.40;50.30;;;;;;5005334;28;19909;-69
2023/04/22 12:04:52;;;;;;;;;;;26.20;50.40;;;;;;5005095;28;21629;-69
2023/04/22 12:07:17;;;;;;;;;;;26.60;50.50;;;;;;5013146;28;19930;-69
2023/04/22 12:09:43;;;;;;;;;;;26.40;50.40;;;;;;5009744;28;19920;-69
2023/04/22 12:12:08;;;;;;;;;;;26.60;50.40;;;;;;5014116;28;19917;-69
2023/04/22 12:14:35;;;;;;;;;;;26.80;49.80;;;;;;5018572;28;19921;-69
2023/04/22 12:17:04;;;;;;;;;;;26.80;49.70;;;;;;5016574;28;19917;-69
2023/04/22 12:19:30;;;;;;;;;;;26.80;49.40;;;;;;5013015;28;19928;-69
2023/04/22 12:21:56;;;;;;;;;;;26.90;49.60;;;;;;5016990;28;19913;-69
2023/04/22 12:24:26;;;;;;;;;;;26.70;49.50;;;;;;5024402;28;20043;-69
2023/04/22 12:26:51;;;;;;;;;;;26.50;49.60;;;;;;5011420;28;19909;-68
2023/04/22 12:29:25;;;;;;;;;;;26.50;50.50;;;;;;5019237;28;19912;-68
2023/04/22 12:31:50;;;;;;;;;;;26.30;50.50;;;;;;5002635;28;20410;-71
2023/04/22 12:34:16;;;;;;;;;;;26.60;50.60;;;;;;5020564;28;19921;-68
2023/04/22 12:36:41;;;;;;;;;;;26.20;50.70;;;;;;5014395;28;19909;-69
2023/04/22 12:39:08;;;;;;;;;;;25.70;50.90;;;;;;5021315;28;20337;-68
2023/04/22 12:41:34;;;;;;;;;;;26.00;51.20;;;;;;5017234;28;19935;-68
2023/04/22 12:43:59;;;;;;;;;;;26.00;50.80;;;;;;5016088;28;19933;-68
2023/04/22 12:46:25;;;;;;;;;;;26.20;50.70;;;;;;5014389;28;19920;-69
2023/04/22 12:48:50;;;;;;;;;;;26.50;50.60;;;;;;5040074;28;20012;-68
2023/04/22 12:51:16;;;;;;;;;;;27.00;49.80;;;;;;5014276;28;19909;-69
2023/04/22 12:53:42;;;;;;;;;;;27.20;49.40;;;;;;5019863;28;19905;-69
2023/04/22 12:56:07;;;;;;;;;;;26.70;49.70;;;;;;5017484;28;19917;-69
2023/04/22 12:58:33;;;;;;;;;;;26.90;50.00;;;;;;4994563;28;19948;-68
2023/04/22 13:00:58;;;;;;;;;;;27.30;49.30;;;;;;5009279;28;19913;-68
2023/04/22 13:03:24;;;;;;;;;;;27.90;49.00;;;;;;4993527;28;20006;-67
2023/04/22 13:05:51;;;;;;;;;;;27.80;48.40;;;;;;5007368;28;19928;-67
2023/04/22 13:08:16;;;;;;;;;;;27.50;48.70;;;;;;5005068;28;19967;-67
2023/04/22 13:10:42;;;;;;;;;;;27.40;48.80;;;;;;5003574;28;19944;-68
2023/04/22 13:13:07;;;;;;;;;;;27.30;48.70;;;;;;5034093;28;19913;-69
2023/04/22 13:15:33;;;;;;;;;;;26.70;49.20;;;;;;5009491;28;20017;-67
2023/04/22 13:17:59;;;;;;;;;;;26.20;49.70;;;;;;5008884;28;19913;-68
2023/04/22 13:20:25;;;;;;;;;;;25.60;50.40;;;;;;5008868;28;19910;-70
2023/04/22 13:22:50;;;;;;;;;;;25.00;51.30;;;;;;5013470;28;19972;-70
2023/04/22 13:25:16;;;;;;;;;;;24.50;52.90;;;;;;5011570;28;19920;-73
2023/04/22 13:27:41;;;;;;;;;;;24.60;53.00;;;;;;4997477;28;19932;-70
2023/04/22 13:30:07;;;;;;;;;;;25.10;52.60;;;;;;5007407;28;20288;-70
2023/04/22 13:32:33;;;;;;;;;;;26.00;52.30;;;;;;5040369;28;19917;-70
2023/04/22 13:34:59;;;;;;;;;;;26.50;49.90;;;;;;5008657;28;19992;-70
2023/04/22 13:37:26;;;;;;;;;;;26.90;49.50;;;;;;5000746;28;20284;-79
2023/04/22 13:39:52;;;;;;;;;;;26.60;49.60;;;;;;5009792;28;19913;-70
2023/04/22 13:42:17;;;;;;;;;;;25.90;49.70;;;;;;5006760;28;19910;-70
2023/04/22 13:44:43;;;;;;;;;;;25.10;52.80;;;;;;5015550;28;19913;-72
2023/04/22 13:47:10;;;;;;;;;;;24.70;52.20;;;;;;4997742;28;19913;-74
2023/04/22 13:49:35;;;;;;;;;;;24.50;52.50;;;;;;5009302;28;19909;-69
2023/04/22 13:52:01;;;;;;;;;;;24.60;52.50;;;;;;5014020;28;20433;-69
2023/04/22 13:54:26;;;;;;;;;;;24.40;53.20;;;;;;5000948;28;19909;-69
2023/04/22 13:56:52;;;;;;;;;;;24.20;53.00;;;;;;5006263;28;19961;-69
2023/04/22 13:59:18;;;;;;;;;;;24.30;53.10;;;;;;5020369;28;19963;-68
2023/04/22 14:01:43;;;;;;;;;;;24.50;52.60;;;;;;5009443;28;19924;-69
2023/04/22 14:04:09;;;;;;;;;;;24.20;53.00;;;;;;5043714;28;19920;-69
2023/04/22 14:06:35;;;;;;;;;;;23.80;53.60;;;;;;5008091;28;20341;-69
2023/04/22 14:09:03;;;;;;;;;;;23.60;54.60;;;;;;5040402;28;19913;-67
2023/04/22 14:11:30;;;;;;;;;;;23.40;54.40;;;;;;5006646;28;19917;-68